createdAt,value
2023-04-03T00:00:02.810Z,8.70
2023-04-03T00:01:05.275Z,8.70
2023-04-03T00:02:07.175Z,8.70
2023-04-03T00:03:09.082Z,8.70
2023-04-03T00:04:11.159Z,8.70
2023-04-03T00:05:13.190Z,8.70
2023-04-03T00:06:15.200Z,8.60
2023-04-03T00:07:19.453Z,8.70
2023-04-03T00:08:21.664Z,8.70
2023-04-03T00:09:24.871Z,8.70
2023-04-03T00:10:26.602Z,8.70
2023-04-03T00:11:28.280Z,8.70
2023-04-03T00:12:30.258Z,8.70
2023-04-03T00:13:33.100Z,8.60
2023-04-03T00:14:34.750Z,8.60
2023-04-03T00:15:37.466Z,8.50
2023-04-03T00:16:39.441Z,8.50
2023-04-03T00:17:41.315Z,8.50
2023-04-03T00:18:45.968Z,8.50
2023-04-03T00:19:49.761Z,8.50
2023-04-03T00:20:54.048Z,8.50
2023-04-03T00:21:56.833Z,8.40
2023-04-03T00:22:58.586Z,8.40
2023-04-03T00:24:00.384Z,8.40
2023-04-03T00:25:02.104Z,8.40
2023-04-03T00:26:04.361Z,8.40
2023-04-03T00:27:08.227Z,8.50
2023-04-03T00:28:10.955Z,8.50
2023-04-03T00:29:12.616Z,8.50
2023-04-03T00:30:17.737Z,8.50
2023-04-03T00:31:19.412Z,8.50
2023-04-03T00:32:21.347Z,8.50
2023-04-03T00:33:23.185Z,8.50
2023-04-03T00:34:24.909Z,8.60
2023-04-03T00:35:26.580Z,8.60
2023-04-03T00:36:28.474Z,8.60
2023-04-03T00:37:30.207Z,8.60
2023-04-03T00:38:32.948Z,8.50
2023-04-03T00:39:34.664Z,8.50
2023-04-03T00:40:43.266Z,8.50
2023-04-03T00:41:44.931Z,8.50
2023-04-03T00:42:51.548Z,8.50
2023-04-03T00:43:53.672Z,8.50
2023-04-03T00:44:58.289Z,8.50
2023-04-03T00:46:00.842Z,8.60
2023-04-03T00:47:06.619Z,8.60
2023-04-03T00:48:13.547Z,8.60
2023-04-03T00:49:15.599Z,8.60
2023-04-03T00:50:17.549Z,8.60
2023-04-03T00:51:23.136Z,8.60
2023-04-03T00:52:30.957Z,8.60
2023-04-03T00:53:40.564Z,8.60
2023-04-03T00:54:43.377Z,8.50
2023-04-03T00:55:45.934Z,8.60
2023-04-03T00:56:47.730Z,8.60
2023-04-03T00:57:50.858Z,8.60
2023-04-03T00:59:06.884Z,8.60
2023-04-03T01:00:14.706Z,8.60
2023-04-03T01:01:22.603Z,8.60
2023-04-03T01:02:24.729Z,8.70
2023-04-03T01:03:27.728Z,8.60
2023-04-03T01:04:34.171Z,8.60
2023-04-03T01:05:36.476Z,8.60
2023-04-03T01:06:39.080Z,8.70
2023-04-03T01:07:41.372Z,8.60
2023-04-03T01:08:43.662Z,8.60
2023-04-03T01:09:47.811Z,8.50
2023-04-03T01:10:49.547Z,8.60
2023-04-03T01:11:51.290Z,8.60
2023-04-03T01:12:53.798Z,8.60
2023-04-03T01:13:55.693Z,8.60
2023-04-03T01:15:02.802Z,8.70
2023-04-03T01:16:07.138Z,8.60
2023-04-03T01:17:30.789Z,8.60
2023-04-03T01:18:34.886Z,8.60
2023-04-03T01:19:46.711Z,8.60
2023-04-03T01:21:04.872Z,8.60
2023-04-03T01:22:31.794Z,8.60
2023-04-03T01:23:52.538Z,8.60
2023-04-03T01:24:54.738Z,8.50
2023-04-03T01:25:58.102Z,8.50
2023-04-03T01:27:01.420Z,8.50
2023-04-03T01:28:04.269Z,8.50
2023-04-03T01:29:06.455Z,8.40
2023-04-03T01:30:09.085Z,8.40
2023-04-03T01:31:10.885Z,8.40
2023-04-03T01:32:13.025Z,8.40
2023-04-03T01:33:15.042Z,8.40
2023-04-03T01:34:18.844Z,8.40
2023-04-03T01:35:21.046Z,8.40
2023-04-03T01:36:27.277Z,8.40
2023-04-03T01:37:29.335Z,8.40
2023-04-03T01:38:31.826Z,8.40
2023-04-03T01:39:34.146Z,8.40
2023-04-03T01:40:36.227Z,8.40
2023-04-03T01:41:38.289Z,8.40
2023-04-03T01:42:40.603Z,8.40
2023-04-03T01:43:42.681Z,8.40
2023-04-03T01:44:44.638Z,8.40
2023-04-03T01:45:47.591Z,8.40
2023-04-03T01:46:49.438Z,8.30
2023-04-03T01:47:51.351Z,8.40
2023-04-03T01:48:53.066Z,8.30
2023-04-03T01:49:54.962Z,8.40
2023-04-03T01:50:56.656Z,8.30
2023-04-03T01:51:58.328Z,8.40
2023-04-03T01:53:00.109Z,8.40
2023-04-03T01:54:02.072Z,8.40
2023-04-03T01:55:03.933Z,8.40
2023-04-03T01:56:06.989Z,8.40
2023-04-03T01:57:08.862Z,8.10
2023-04-03T01:58:11.028Z,8.40
2023-04-03T01:59:12.924Z,8.40
2023-04-03T02:00:15.872Z,8.40
2023-04-03T02:01:17.875Z,8.40
2023-04-03T02:02:21.236Z,8.40
2023-04-03T02:03:23.291Z,8.40
2023-04-03T02:04:25.383Z,8.50
2023-04-03T02:05:27.323Z,8.40
2023-04-03T02:06:29.210Z,8.40
2023-04-03T02:07:31.083Z,8.50
2023-04-03T02:08:33.086Z,8.50
2023-04-03T02:09:35.117Z,8.50
2023-04-03T02:10:36.989Z,8.40
2023-04-03T02:11:39.141Z,8.40
2023-04-03T02:12:41.248Z,8.40
2023-04-03T02:13:43.094Z,8.40
2023-04-03T02:14:44.778Z,8.40
2023-04-03T02:15:48.739Z,8.40
2023-04-03T02:16:51.484Z,8.40
2023-04-03T02:17:53.633Z,8.40
2023-04-03T02:18:55.761Z,8.40
2023-04-03T02:19:57.410Z,8.40
2023-04-03T02:20:59.333Z,8.40
2023-04-03T02:22:03.349Z,8.40
2023-04-03T02:23:06.837Z,8.40
2023-04-03T02:24:09.367Z,8.40
2023-04-03T02:25:11.617Z,8.40
2023-04-03T02:26:15.011Z,8.40
2023-04-03T02:27:17.248Z,8.50
2023-04-03T02:28:19.162Z,8.40
2023-04-03T02:29:21.210Z,8.50
2023-04-03T02:30:23.178Z,8.50
2023-04-03T02:31:25.174Z,8.50
2023-04-03T02:32:27.379Z,8.50
2023-04-03T02:33:29.553Z,8.50
2023-04-03T02:34:31.718Z,8.50
2023-04-03T02:35:33.580Z,8.40
2023-04-03T02:36:35.560Z,8.40
2023-04-03T02:37:38.212Z,8.40
2023-04-03T02:38:40.171Z,8.40
2023-04-03T02:39:42.013Z,8.40
2023-04-03T02:40:43.684Z,8.40
2023-04-03T02:41:45.813Z,8.30
2023-04-03T02:42:47.616Z,8.30
2023-04-03T02:43:49.367Z,8.30
2023-04-03T02:44:51.282Z,8.30
2023-04-03T02:45:53.270Z,8.30
2023-04-03T02:46:56.342Z,8.30
2023-04-03T02:47:58.024Z,8.30
2023-04-03T02:49:00.181Z,8.30
2023-04-03T02:50:02.020Z,8.30
2023-04-03T02:51:04.189Z,8.30
2023-04-03T02:52:06.018Z,8.30
2023-04-03T02:53:07.785Z,8.30
2023-04-03T02:54:11.769Z,8.30
2023-04-03T02:55:17.767Z,8.30
2023-04-03T02:56:20.444Z,8.30
2023-04-03T02:57:22.634Z,8.30
2023-04-03T02:58:24.689Z,8.30
2023-04-03T02:59:27.820Z,8.20
2023-04-03T03:00:29.720Z,8.20
2023-04-03T03:01:33.461Z,8.20
2023-04-03T03:02:35.705Z,8.30
2023-04-03T03:03:37.500Z,8.30
2023-04-03T03:04:39.581Z,8.20
2023-04-03T03:05:41.341Z,8.20
2023-04-03T03:06:44.746Z,8.20
2023-04-03T03:07:46.701Z,8.20
2023-04-03T03:08:48.369Z,8.20
2023-04-03T03:09:50.457Z,8.20
2023-04-03T03:10:52.255Z,8.20
2023-04-03T03:11:54.256Z,8.30
2023-04-03T03:12:56.372Z,8.20
2023-04-03T03:13:58.174Z,8.20
2023-04-03T03:14:59.865Z,8.20
2023-04-03T03:16:02.233Z,8.20
2023-04-03T03:17:05.720Z,8.20
2023-04-03T03:18:07.581Z,8.20
2023-04-03T03:19:09.702Z,8.20
2023-04-03T03:20:12.396Z,8.20
2023-04-03T03:21:14.410Z,8.20
2023-04-03T03:22:17.354Z,8.20
2023-04-03T03:23:19.250Z,8.20
2023-04-03T03:24:21.041Z,8.20
2023-04-03T03:25:23.435Z,8.20
2023-04-03T03:26:26.156Z,8.20
2023-04-03T03:27:28.179Z,8.20
2023-04-03T03:28:30.056Z,8.20
2023-04-03T03:29:32.093Z,8.20
2023-04-03T03:30:34.522Z,8.20
2023-04-03T03:31:36.581Z,8.20
2023-04-03T03:32:38.453Z,8.20
2023-04-03T03:33:40.280Z,8.20
2023-04-03T03:34:42.272Z,8.20
2023-04-03T03:35:44.551Z,8.20
2023-04-03T03:36:46.516Z,8.20
2023-04-03T03:37:48.187Z,8.20
2023-04-03T03:38:49.911Z,8.20
2023-04-03T03:39:51.791Z,8.20
2023-04-03T03:40:54.966Z,8.20
2023-04-03T03:41:56.582Z,8.10
2023-04-03T03:42:58.668Z,8.20
2023-04-03T03:44:00.456Z,8.20
2023-04-03T03:45:02.184Z,8.20
2023-04-03T03:46:04.092Z,8.20
2023-04-03T03:47:07.363Z,8.20
2023-04-03T03:48:09.360Z,8.20
2023-04-03T03:49:12.625Z,8.20
2023-04-03T03:50:14.580Z,8.20
2023-04-03T03:51:16.935Z,8.20
2023-04-03T03:52:19.201Z,8.20
2023-04-03T03:53:20.998Z,8.20
2023-04-03T03:54:22.671Z,8.20
2023-04-03T03:55:24.692Z,8.20
2023-04-03T03:56:26.356Z,8.20
2023-04-03T03:57:29.983Z,8.20
2023-04-03T03:58:32.178Z,8.20
2023-04-03T03:59:34.166Z,8.20
2023-04-03T04:00:36.122Z,8.20
2023-04-03T04:01:38.908Z,8.20
2023-04-03T04:02:40.892Z,8.20
2023-04-03T04:03:42.958Z,8.20
2023-04-03T04:04:46.930Z,8.20
2023-04-03T04:05:48.697Z,8.20
2023-04-03T04:06:50.710Z,8.20
2023-04-03T04:07:52.350Z,8.20
2023-04-03T04:08:55.041Z,8.20
2023-04-03T04:09:56.727Z,8.30
2023-04-03T04:10:58.486Z,8.30
2023-04-03T04:12:00.160Z,8.30
2023-04-03T04:13:02.087Z,8.30
2023-04-03T04:14:06.587Z,8.30
2023-04-03T04:15:09.141Z,8.30
2023-04-03T04:16:11.457Z,8.30
2023-04-03T04:17:13.777Z,8.50
2023-04-03T04:18:15.811Z,8.30
2023-04-03T04:19:17.606Z,8.30
2023-04-03T04:20:19.403Z,8.40
2023-04-03T04:21:21.415Z,8.30
2023-04-03T04:22:23.101Z,8.40
2023-04-03T04:23:24.881Z,8.40
2023-04-03T04:24:26.563Z,8.40
2023-04-03T04:25:28.416Z,8.30
2023-04-03T04:26:30.782Z,8.40
2023-04-03T04:27:33.743Z,8.40
2023-04-03T04:28:35.476Z,8.40
2023-04-03T04:29:38.467Z,8.40
2023-04-03T04:30:40.657Z,8.40
2023-04-03T04:31:42.587Z,8.40
2023-04-03T04:32:45.416Z,8.40
2023-04-03T04:33:47.124Z,8.50
2023-04-03T04:34:48.847Z,8.50
2023-04-03T04:35:51.058Z,8.50
2023-04-03T04:36:53.501Z,8.40
2023-04-03T04:37:55.270Z,8.40
2023-04-03T04:38:57.990Z,8.40
2023-04-03T04:40:01.292Z,8.50
2023-04-03T04:41:03.256Z,8.40
2023-04-03T04:42:04.923Z,8.40
2023-04-03T04:43:07.247Z,8.40
2023-04-03T04:44:10.488Z,8.30
2023-04-03T04:45:12.355Z,8.30
2023-04-03T04:46:14.131Z,8.30
2023-04-03T04:47:16.198Z,8.30
2023-04-03T04:48:17.965Z,8.40
2023-04-03T04:49:19.917Z,8.40
2023-04-03T04:50:21.870Z,8.40
2023-04-03T04:51:23.523Z,8.40
2023-04-03T04:52:25.772Z,8.40
2023-04-03T04:53:27.587Z,8.40
2023-04-03T04:54:29.404Z,8.40
2023-04-03T04:55:33.440Z,8.40
2023-04-03T04:56:35.355Z,8.50
2023-04-03T04:57:38.238Z,8.50
2023-04-03T04:58:40.040Z,8.50
2023-04-03T04:59:41.716Z,8.50
2023-04-03T05:00:43.415Z,8.50
2023-04-03T05:01:45.459Z,8.50
2023-04-03T05:02:47.496Z,8.50
2023-04-03T05:03:49.183Z,8.50
2023-04-03T05:04:52.673Z,8.50
2023-04-03T05:05:54.642Z,8.50
2023-04-03T05:06:56.311Z,8.50
2023-04-03T05:07:58.004Z,8.50
2023-04-03T05:09:00.424Z,8.50
2023-04-03T05:10:03.186Z,8.50
2023-04-03T05:11:07.389Z,8.50
2023-04-03T05:12:09.259Z,8.50
2023-04-03T05:13:11.131Z,8.50
2023-04-03T05:14:15.115Z,8.50
2023-04-03T05:15:17.513Z,8.60
2023-04-03T05:16:19.225Z,8.60
2023-04-03T05:17:21.176Z,8.60
2023-04-03T05:18:22.854Z,8.50
2023-04-03T05:19:24.553Z,8.50
2023-04-03T05:20:27.649Z,8.50
2023-04-03T05:21:33.416Z,8.50
2023-04-03T05:22:35.590Z,8.50
2023-04-03T05:23:38.644Z,8.50
2023-04-03T05:24:42.808Z,8.50
2023-04-03T05:25:46.199Z,8.50
2023-04-03T05:26:47.846Z,8.50
2023-04-03T05:27:49.595Z,8.50
2023-04-03T05:28:51.221Z,8.50
2023-04-03T05:29:54.207Z,8.50
2023-04-03T05:30:57.565Z,8.50
2023-04-03T05:31:59.506Z,8.50
2023-04-03T05:33:03.961Z,8.50
2023-04-03T05:34:05.927Z,8.50
2023-04-03T05:35:08.355Z,8.50
2023-04-03T05:38:27.264Z,8.50
2023-04-03T05:39:29.388Z,8.50
2023-04-03T05:40:31.027Z,8.50
2023-04-03T05:41:33.343Z,8.50
2023-04-03T05:42:35.367Z,8.50
2023-04-03T05:43:38.828Z,8.50
2023-04-03T05:44:40.660Z,8.50
2023-04-03T05:45:43.631Z,8.40
2023-04-03T05:46:46.402Z,8.50
2023-04-03T05:47:48.547Z,8.50
2023-04-03T05:48:51.141Z,8.50
2023-04-03T05:49:54.438Z,8.50
2023-04-03T05:50:57.135Z,8.50
2023-04-03T05:51:59.106Z,8.50
2023-04-03T05:53:03.523Z,8.50
2023-04-03T05:54:17.222Z,8.40
2023-04-03T05:55:19.099Z,8.40
2023-04-03T05:56:21.341Z,8.50
2023-04-03T05:57:23.485Z,8.40
2023-04-03T05:58:26.212Z,8.40
2023-04-03T05:59:29.342Z,8.40
2023-04-03T06:00:31.224Z,8.40
2023-04-03T06:01:35.162Z,8.40
2023-04-03T06:02:37.228Z,8.40
2023-04-03T06:03:41.754Z,8.40
2023-04-03T06:04:44.059Z,8.40
2023-04-03T06:05:47.564Z,8.40
2023-04-03T06:06:55.185Z,8.40
2023-04-03T06:07:58.227Z,8.40
2023-04-03T06:09:03.737Z,8.40
2023-04-03T06:10:06.627Z,8.40
2023-04-03T06:11:09.927Z,8.40
2023-04-03T06:12:12.296Z,8.40
2023-04-03T06:13:14.674Z,8.40
2023-04-03T06:14:16.561Z,8.40
2023-04-03T06:15:18.372Z,8.40
2023-04-03T06:16:23.803Z,8.30
2023-04-03T06:17:26.629Z,8.40
2023-04-03T06:18:30.523Z,8.30
2023-04-03T06:19:32.539Z,8.30
2023-04-03T06:20:34.180Z,8.30
2023-04-03T06:21:39.171Z,8.30
2023-04-03T06:22:41.204Z,8.30
2023-04-03T06:23:42.863Z,8.30
2023-04-03T06:24:44.727Z,8.30
2023-04-03T06:25:47.096Z,8.30
2023-04-03T06:26:50.053Z,8.30
2023-04-03T06:27:53.741Z,8.30
2023-04-03T06:28:55.480Z,8.40
2023-04-03T06:29:57.141Z,8.40
2023-04-03T06:30:58.879Z,8.40
2023-04-03T06:32:02.044Z,8.40
2023-04-03T06:33:04.807Z,8.40
2023-04-03T06:34:09.562Z,8.40
2023-04-03T06:35:11.764Z,8.40
2023-04-03T06:36:13.920Z,8.40
2023-04-03T06:37:21.490Z,8.30
2023-04-03T06:38:25.280Z,8.40
2023-04-03T06:39:27.304Z,8.40
2023-04-03T06:40:29.288Z,8.30
2023-04-03T06:41:31.592Z,8.40
2023-04-03T06:42:33.376Z,8.40
2023-04-03T06:43:37.410Z,8.40
2023-04-03T06:44:39.044Z,8.40
2023-04-03T06:45:41.554Z,8.40
2023-04-03T06:46:44.959Z,8.40
2023-04-03T06:47:47.161Z,8.40
2023-04-03T06:48:50.190Z,8.40
2023-04-03T06:49:52.029Z,8.40
2023-04-03T06:50:54.538Z,8.30
2023-04-03T06:51:57.316Z,8.30
2023-04-03T06:53:01.918Z,8.30
2023-04-03T06:54:05.666Z,8.30
2023-04-03T06:55:08.212Z,8.30
2023-04-03T06:56:09.913Z,8.30
2023-04-03T06:57:11.837Z,8.30
2023-04-03T06:58:13.724Z,8.30
2023-04-03T06:59:40.957Z,8.30
2023-04-03T07:00:43.084Z,8.30
2023-04-03T07:01:47.106Z,8.40
2023-04-03T07:02:49.601Z,8.40
2023-04-03T07:03:53.155Z,8.40
2023-04-03T07:04:54.924Z,8.40
2023-04-03T07:05:56.902Z,8.40
2023-04-03T07:07:01.155Z,8.40
2023-04-03T07:08:04.496Z,8.40
2023-04-03T07:09:06.377Z,8.40
2023-04-03T07:10:08.746Z,8.40
2023-04-03T07:11:11.969Z,8.50
2023-04-03T07:12:13.906Z,8.50
2023-04-03T07:13:15.957Z,8.50
2023-04-03T07:14:18.952Z,8.50
2023-04-03T07:15:20.964Z,8.50
2023-04-03T07:16:26.075Z,8.50
2023-04-03T07:17:28.745Z,8.50
2023-04-03T07:18:30.789Z,8.50
2023-04-03T07:19:32.704Z,8.60
2023-04-03T07:20:35.689Z,8.50
2023-04-03T07:21:39.745Z,8.50
2023-04-03T07:22:42.534Z,8.60
2023-04-03T07:23:44.534Z,8.60
2023-04-03T07:24:47.062Z,8.60
2023-04-03T07:25:50.527Z,8.60
2023-04-03T07:26:55.041Z,8.60
2023-04-03T07:27:58.647Z,8.60
2023-04-03T07:29:00.650Z,8.60
2023-04-03T07:30:02.907Z,8.60
2023-04-03T07:31:09.446Z,8.60
2023-04-03T07:32:12.658Z,8.60
2023-04-03T07:33:16.850Z,8.60
2023-04-03T07:34:18.449Z,8.60
2023-04-03T07:35:20.491Z,8.60
2023-04-03T07:36:26.082Z,8.60
2023-04-03T07:37:27.730Z,8.70
2023-04-03T07:38:30.617Z,8.60
2023-04-03T07:39:32.646Z,8.60
2023-04-03T07:40:35.866Z,8.70
2023-04-03T07:41:37.862Z,8.70
2023-04-03T07:42:39.570Z,8.70
2023-04-03T07:43:41.823Z,8.70
2023-04-03T07:44:43.903Z,8.80
2023-04-03T07:45:46.046Z,8.80
2023-04-03T07:46:48.020Z,8.80
2023-04-03T07:47:50.015Z,8.80
2023-04-03T07:48:51.621Z,8.80
2023-04-03T07:49:54.232Z,8.80
2023-04-03T07:51:01.460Z,8.90
2023-04-03T07:52:04.373Z,8.90
2023-04-03T07:53:06.708Z,8.90
2023-04-03T07:54:08.279Z,8.80
2023-04-03T07:55:09.991Z,8.80
2023-04-03T07:56:11.695Z,8.80
2023-04-03T07:57:14.660Z,8.80
2023-04-03T07:58:18.542Z,8.80
2023-04-03T07:59:21.412Z,8.90
2023-04-03T08:00:25.616Z,8.90
2023-04-03T08:01:29.623Z,8.90
2023-04-03T08:02:32.826Z,8.90
2023-04-03T08:03:34.847Z,8.90
2023-04-03T08:04:36.838Z,9.00
2023-04-03T08:05:43.104Z,9.00
2023-04-03T08:06:46.876Z,9.00
2023-04-03T08:07:49.457Z,9.00
2023-04-03T08:08:51.460Z,9.00
2023-04-03T08:09:53.177Z,9.00
2023-04-03T08:10:55.585Z,8.90
2023-04-03T08:11:57.243Z,8.90
2023-04-03T08:13:02.801Z,8.90
2023-04-03T08:14:04.420Z,8.80
2023-04-03T08:15:08.004Z,8.80
2023-04-03T08:16:16.930Z,8.80
2023-04-03T08:17:18.637Z,8.80
2023-04-03T08:18:22.724Z,8.80
2023-04-03T08:19:26.471Z,8.80
2023-04-03T08:20:29.221Z,8.90
2023-04-03T08:21:31.344Z,8.90
2023-04-03T08:22:33.461Z,8.90
2023-04-03T08:23:37.777Z,8.90
2023-04-03T08:24:52.427Z,9.00
2023-04-03T08:26:05.892Z,9.00
2023-04-03T08:27:08.663Z,9.00
2023-04-03T08:28:12.611Z,9.00
2023-04-03T08:29:14.531Z,9.00
2023-04-03T08:30:16.998Z,9.10
2023-04-03T08:31:20.982Z,9.10
2023-04-03T08:32:23.272Z,9.10
2023-04-03T08:33:25.015Z,9.10
2023-04-03T08:34:26.966Z,9.10
2023-04-03T08:35:28.949Z,9.10
2023-04-03T08:36:30.943Z,9.10
2023-04-03T08:37:32.867Z,9.10
2023-04-03T08:38:37.947Z,9.10
2023-04-03T08:39:40.685Z,9.10
2023-04-03T08:40:42.811Z,9.10
2023-04-03T08:41:48.684Z,9.20
2023-04-03T08:43:16.585Z,9.20
2023-04-03T08:44:43.859Z,9.20
2023-04-03T08:45:52.368Z,9.20
2023-04-03T08:47:22.323Z,9.20
2023-04-03T08:48:58.304Z,9.20
2023-04-03T08:50:13.305Z,9.20
2023-04-03T08:51:17.877Z,9.10
2023-04-03T08:52:26.013Z,9.10
2023-04-03T08:53:34.652Z,9.20
2023-04-03T08:54:46.998Z,9.10
2023-04-03T08:55:51.908Z,9.10
2023-04-03T08:56:54.756Z,9.10
2023-04-03T08:58:10.779Z,9.10
2023-04-03T08:59:18.305Z,9.10
2023-04-03T09:00:21.977Z,9.10
2023-04-03T09:01:28.468Z,9.10
2023-04-03T09:02:41.150Z,9.10
2023-04-03T09:03:42.984Z,9.10
2023-04-03T09:04:45.300Z,9.10
2023-04-03T09:06:06.471Z,9.10
2023-04-03T09:07:21.986Z,9.20
2023-04-03T09:08:32.801Z,9.30
2023-04-03T09:09:43.087Z,9.30
2023-04-03T09:10:44.822Z,9.30
2023-04-03T09:12:20.714Z,9.30
2023-04-03T09:13:35.007Z,9.30
2023-04-03T09:14:56.970Z,9.30
2023-04-03T09:15:59.331Z,9.20
2023-04-03T09:17:06.169Z,9.20
2023-04-03T09:18:39.950Z,9.20
2023-04-03T09:19:58.784Z,9.20
2023-04-03T09:21:16.559Z,9.20
2023-04-03T09:22:32.749Z,9.20
2023-04-03T09:23:51.130Z,9.20
2023-04-03T09:25:02.852Z,9.20
2023-04-03T09:26:10.938Z,9.20
2023-04-03T09:27:13.413Z,9.20
2023-04-03T09:28:16.876Z,9.20
2023-04-03T09:29:22.023Z,9.20
2023-04-03T09:30:27.259Z,9.30
2023-04-03T09:31:39.538Z,9.30
2023-04-03T09:32:45.280Z,9.30
2023-04-03T09:33:51.511Z,9.30
2023-04-03T09:34:55.660Z,9.40
2023-04-03T09:35:59.572Z,9.40
2023-04-03T09:37:09.665Z,9.40
2023-04-03T09:38:12.466Z,9.40
2023-04-03T09:39:20.179Z,9.40
2023-04-03T09:40:27.666Z,9.40
2023-04-03T09:41:29.679Z,9.40
2023-04-03T09:42:33.273Z,9.40
2023-04-03T09:43:39.656Z,9.40
2023-04-03T09:44:43.483Z,9.40
2023-04-03T09:45:48.770Z,9.40
2023-04-03T09:46:52.560Z,9.40
2023-04-03T09:48:10.411Z,9.40
2023-04-03T09:49:14.823Z,9.40
2023-04-03T09:50:21.933Z,9.40
2023-04-03T09:51:28.562Z,9.40
2023-04-03T09:52:30.590Z,9.40
2023-04-03T09:53:40.070Z,9.40
2023-04-03T09:54:42.269Z,9.40
2023-04-03T09:55:46.534Z,9.40
2023-04-03T09:56:56.840Z,9.50
2023-04-03T09:58:03.576Z,9.50
2023-04-03T09:59:05.529Z,9.50
2023-04-03T10:00:29.246Z,9.50
2023-04-03T10:01:38.242Z,9.60
2023-04-03T10:02:41.873Z,9.50
2023-04-03T10:03:47.990Z,9.60
2023-04-03T10:05:06.247Z,9.60
2023-04-03T10:06:38.775Z,9.60
2023-04-03T10:07:44.397Z,9.60
2023-04-03T10:09:01.379Z,9.60
2023-04-03T10:10:18.757Z,9.60
2023-04-03T10:11:22.865Z,9.60
2023-04-03T10:12:24.694Z,9.60
2023-04-03T10:13:26.662Z,9.60
2023-04-03T10:14:33.420Z,9.60
2023-04-03T10:15:47.358Z,9.70
2023-04-03T10:17:05.105Z,9.70
2023-04-03T10:18:24.603Z,9.70
2023-04-03T10:19:50.307Z,9.80
2023-04-03T10:20:53.897Z,9.80
2023-04-03T10:22:17.255Z,9.80
2023-04-03T10:23:42.896Z,9.80
2023-04-03T10:24:50.790Z,9.80
2023-04-03T10:26:15.655Z,9.80
2023-04-03T10:28:02.748Z,9.70
2023-04-03T10:29:20.294Z,9.70
2023-04-03T10:30:51.176Z,9.70
2023-04-03T10:32:16.722Z,9.60
2023-04-03T10:33:40.031Z,9.70
2023-04-03T10:35:02.289Z,9.60
2023-04-03T10:36:59.434Z,9.60
2023-04-03T10:38:18.935Z,9.60
2023-04-03T10:39:23.558Z,9.60
2023-04-03T10:40:46.457Z,9.50
2023-04-03T10:42:09.366Z,9.50
2023-04-03T10:43:56.830Z,9.50
2023-04-03T10:45:31.634Z,9.50
2023-04-03T10:46:52.329Z,9.50
2023-04-03T10:48:27.301Z,9.50
2023-04-03T10:49:59.465Z,9.60
2023-04-03T10:51:10.637Z,9.60
2023-04-03T10:52:29.419Z,9.60
2023-04-03T10:53:57.161Z,9.60
2023-04-03T10:55:21.527Z,9.60
2023-04-03T10:56:36.990Z,9.60
2023-04-03T10:57:42.064Z,9.50
2023-04-03T10:58:48.071Z,9.50
2023-04-03T10:59:56.227Z,9.50
2023-04-03T11:01:06.435Z,9.50
2023-04-03T11:02:16.598Z,9.50
2023-04-03T11:03:38.093Z,9.60
2023-04-03T11:04:44.599Z,9.60
2023-04-03T11:05:50.406Z,9.60
2023-04-03T11:07:00.973Z,9.70
2023-04-03T11:08:27.624Z,9.70
2023-04-03T11:09:53.426Z,9.70
2023-04-03T11:11:02.137Z,9.70
2023-04-03T11:12:34.836Z,9.70
2023-04-03T11:13:55.944Z,9.70
2023-04-03T11:14:59.891Z,9.80
2023-04-03T11:16:03.569Z,9.80
2023-04-03T11:17:29.402Z,9.80
2023-04-03T11:18:45.930Z,9.90
2023-04-03T11:20:07.869Z,9.90
2023-04-03T11:21:17.037Z,9.80
2023-04-03T11:22:24.669Z,9.80
2023-04-03T11:23:42.241Z,9.80
2023-04-03T11:25:00.522Z,9.70
2023-04-03T11:26:14.332Z,9.70
2023-04-03T11:27:23.563Z,9.70
2023-04-03T11:28:25.998Z,9.70
2023-04-03T11:29:36.102Z,9.70
2023-04-03T11:30:47.470Z,9.80
2023-04-03T11:32:04.711Z,9.80
2023-04-03T11:33:40.671Z,9.80
2023-04-03T11:34:48.454Z,9.70
2023-04-03T11:35:54.379Z,9.70
2023-04-03T11:37:00.110Z,9.70
2023-04-03T11:38:06.679Z,9.80
2023-04-03T11:39:24.091Z,9.80
2023-04-03T11:40:33.661Z,9.80
2023-04-03T11:41:35.491Z,9.90
2023-04-03T11:42:39.943Z,9.90
2023-04-03T11:43:56.641Z,9.90
2023-04-03T11:45:23.115Z,9.90
2023-04-03T11:46:58.390Z,9.90
2023-04-03T11:48:28.406Z,9.90
2023-04-03T11:50:00.562Z,9.90
2023-04-03T11:51:23.309Z,9.80
2023-04-03T11:52:43.753Z,9.80
2023-04-03T11:53:46.797Z,9.80
2023-04-03T11:54:49.813Z,9.80
2023-04-03T11:55:51.457Z,9.80
2023-04-03T11:56:53.436Z,9.80
2023-04-03T11:58:04.119Z,9.90
2023-04-03T11:59:12.663Z,10.00
2023-04-03T12:01:03.984Z,10.00
2023-04-03T12:02:51.187Z,10.00
2023-04-03T12:04:06.922Z,10.00
2023-04-03T12:05:29.115Z,10.00
2023-04-03T12:06:33.748Z,10.00
2023-04-03T12:07:35.539Z,9.90
2023-04-03T12:08:43.674Z,9.90
2023-04-03T12:09:45.342Z,9.90
2023-04-03T12:11:09.731Z,9.90
2023-04-03T12:12:36.444Z,9.90
2023-04-03T12:13:50.429Z,9.80
2023-04-03T12:14:52.731Z,9.80
2023-04-03T12:15:55.038Z,9.80
2023-04-03T12:16:58.884Z,9.70
2023-04-03T12:18:20.705Z,9.70
2023-04-03T12:19:41.292Z,9.70
2023-04-03T12:20:50.371Z,9.70
2023-04-03T12:21:59.136Z,9.70
2023-04-03T12:23:24.756Z,9.80
2023-04-03T12:24:30.733Z,9.90
2023-04-03T12:25:50.960Z,9.90
2023-04-03T12:27:06.037Z,10.00
2023-04-03T12:28:11.467Z,10.00
2023-04-03T12:29:26.463Z,10.10
2023-04-03T12:30:31.349Z,10.10
2023-04-03T12:32:10.056Z,10.20
2023-04-03T12:33:42.892Z,10.20
2023-04-03T12:35:06.408Z,10.20
2023-04-03T12:36:16.122Z,10.20
2023-04-03T12:37:39.422Z,10.10
2023-04-03T12:39:06.825Z,10.10
2023-04-03T12:40:17.943Z,10.10
2023-04-03T12:41:39.235Z,10.20
2023-04-03T12:43:10.987Z,10.20
2023-04-03T12:44:35.666Z,10.20
2023-04-03T12:46:03.313Z,10.20
2023-04-03T12:47:34.737Z,10.20
2023-04-03T12:48:46.432Z,10.20
2023-04-03T12:49:52.717Z,10.10
2023-04-03T12:50:56.736Z,10.10
2023-04-03T12:51:59.659Z,10.10
2023-04-03T12:53:14.374Z,10.10
2023-04-03T12:54:40.644Z,10.20
2023-04-03T12:55:42.276Z,10.20
2023-04-03T12:56:43.893Z,10.20
2023-04-03T12:57:45.715Z,10.20
2023-04-03T12:58:47.574Z,10.10
2023-04-03T12:59:50.526Z,10.10
2023-04-03T13:01:15.043Z,10.20
2023-04-03T13:02:29.576Z,10.20
2023-04-03T13:03:31.932Z,10.20
2023-04-03T13:04:33.724Z,10.20
2023-04-03T13:05:37.238Z,10.20
2023-04-03T13:06:41.824Z,10.20
2023-04-03T13:07:44.481Z,10.30
2023-04-03T13:09:05.117Z,10.30
2023-04-03T13:10:09.744Z,10.30
2023-04-03T13:11:12.788Z,10.40
2023-04-03T13:12:16.938Z,10.40
2023-04-03T13:13:18.869Z,10.50
2023-04-03T13:14:29.078Z,10.50
2023-04-03T13:15:43.151Z,10.50
2023-04-03T13:16:58.194Z,10.60
2023-04-03T13:18:00.086Z,10.60
2023-04-03T13:19:01.885Z,10.60
2023-04-03T13:20:37.144Z,10.60
2023-04-03T13:21:39.378Z,10.60
2023-04-03T13:22:57.278Z,10.60
2023-04-03T13:24:14.833Z,10.70
2023-04-03T13:25:21.113Z,10.60
2023-04-03T13:26:29.424Z,10.60
2023-04-03T13:27:32.372Z,10.60
2023-04-03T13:28:35.290Z,10.50
2023-04-03T13:29:38.945Z,10.50
2023-04-03T13:30:42.511Z,10.50
2023-04-03T13:31:44.710Z,10.60
2023-04-03T13:32:46.677Z,10.50
2023-04-03T13:34:19.950Z,10.50
2023-04-03T13:35:39.258Z,10.50
2023-04-03T13:37:02.510Z,10.60
2023-04-03T13:38:20.609Z,10.60
2023-04-03T13:39:38.267Z,10.70
2023-04-03T13:40:57.993Z,10.70
2023-04-03T13:42:02.811Z,10.80
2023-04-03T13:43:20.428Z,10.80
2023-04-03T13:44:22.094Z,10.80
2023-04-03T13:45:29.645Z,10.80
2023-04-03T13:46:32.182Z,10.80
2023-04-03T13:47:40.686Z,10.80
2023-04-03T13:48:47.746Z,10.80
2023-04-03T13:50:15.160Z,10.80
2023-04-03T13:51:22.311Z,10.80
2023-04-03T13:52:37.139Z,10.80
2023-04-03T13:53:52.805Z,10.70
2023-04-03T13:55:02.925Z,10.70
2023-04-03T13:56:04.699Z,10.70
2023-04-03T13:57:15.811Z,10.60
2023-04-03T13:58:25.000Z,10.60
2023-04-03T13:59:33.416Z,10.60
2023-04-03T14:00:47.951Z,10.50
2023-04-03T14:02:04.886Z,10.50
2023-04-03T14:03:42.666Z,10.50
2023-04-03T14:04:59.356Z,10.50
2023-04-03T14:06:02.325Z,10.50
2023-04-03T14:07:05.644Z,10.50
2023-04-03T14:08:08.825Z,10.50
2023-04-03T14:09:11.250Z,10.50
2023-04-03T14:10:13.370Z,10.60
2023-04-03T14:11:17.285Z,10.50
2023-04-03T14:12:38.157Z,10.60
2023-04-03T14:13:39.853Z,10.60
2023-04-03T14:14:43.435Z,10.60
2023-04-03T14:15:49.487Z,10.70
2023-04-03T14:17:03.862Z,10.70
2023-04-03T14:18:06.735Z,10.70
2023-04-03T14:19:19.469Z,10.70
2023-04-03T14:20:24.004Z,10.70
2023-04-03T14:21:26.447Z,10.70
2023-04-03T14:22:31.256Z,10.70
2023-04-03T14:23:33.985Z,10.70
2023-04-03T14:24:35.655Z,10.70
2023-04-03T14:25:38.704Z,10.70
2023-04-03T14:26:40.380Z,10.70
2023-04-03T14:27:47.619Z,10.70
2023-04-03T14:28:52.308Z,10.80
2023-04-03T14:29:56.092Z,10.90
2023-04-03T14:30:57.927Z,10.90
2023-04-03T14:32:13.671Z,10.90
2023-04-03T14:33:19.948Z,10.90
2023-04-03T14:34:22.332Z,10.90
2023-04-03T14:35:25.923Z,11.10
2023-04-03T14:36:29.791Z,11.30
2023-04-03T14:37:32.983Z,11.50
2023-04-03T14:38:34.851Z,11.70
2023-04-03T14:39:36.688Z,11.90
2023-04-03T14:40:38.725Z,12.00
2023-04-03T14:41:42.943Z,12.00
2023-04-03T14:42:45.040Z,12.00
2023-04-03T14:43:49.154Z,11.90